Time;durP1;ratioP1;P1;durP2;ratioP2;P2;SDS_P1;SDS_P2;PMS_P1;PMS_P2;Temp;Humidity;BMP_temperature;BMP_pressure;BME280_temperature;BME280_humidity;BME280_pressure;Samples;Min_cycle;Max_cycle;Signal;HPM_P1;HPM_P2
2022/12/13 00:01:28;;;;;;;64.37;28.93;;;;;;;;;;4963147;28;20072;-69
2022/12/13 00:03:55;;;;;;;53.47;27.37;;;;;;;;;;4961718;28;20042;-68
2022/12/13 00:06:23;;;;;;;59.30;27.13;;;;;;;;;;4945786;28;20107;-67
2022/12/13 00:08:49;;;;;;;52.37;24.60;;;;;;;;;;4962672;28;20026;-67
2022/12/13 00:11:14;;;;;;;50.93;24.97;;;;;;;;;;4963529;28;20058;-68
2022/12/13 00:13:40;;;;;;;51.03;24.63;;;;;;;;;;4960766;28;20049;-68
2022/12/13 00:16:09;;;;;;;49.67;24.20;;;;;;;;;;4963076;28;20861;-68
2022/12/13 00:18:34;;;;;;;49.80;23.90;;;;;;;;;;4962622;28;20030;-68
2022/12/13 00:21:09;;;;;;;51.90;24.17;;;;;;;;;;4962524;28;20034;-68
2022/12/13 00:23:34;;;;;;;;;;;;;;;;;;4962371;28;20038;-68
2022/12/13 00:26:03;;;;;;;54.47;26.47;;;;;;;;;;4965094;28;20010;-68
2022/12/13 00:28:29;;;;;;;54.07;28.70;;;;;;;;;;5033380;28;20030;-68
2022/12/13 00:30:58;;;;;;;58.27;31.17;;;;;;;;;;5020233;28;20026;-68
2022/12/13 00:33:24;;;;;;;55.67;30.60;;;;;;;;;;5014773;28;20030;-68
2022/12/13 00:35:49;;;;;;;58.10;32.00;;;;;;;;;;4960520;28;20041;-68
2022/12/13 00:38:15;;;;;;;62.90;33.73;;;;;;;;;;4996438;28;20071;-68
2022/12/13 00:40:40;;;;;;;60.60;31.03;;;;;;;;;;5032982;28;20116;-68
2022/12/13 00:43:05;;;;;;;61.40;30.13;;;;;;;;;;5046237;28;20065;-68
2022/12/13 00:45:31;;;;;;;56.23;29.00;;;;;;;;;;4962796;28;20111;-68
2022/12/13 00:47:57;;;;;;;60.00;29.07;;;;;;;;;;4947552;28;20046;-67
2022/12/13 00:50:23;;;;;;;56.00;28.50;;;;;;;;;;4962048;28;20030;-68
2022/12/13 00:52:50;;;;;;;58.47;30.43;;;;;;;;;;5046462;28;20123;-69
2022/12/13 00:55:16;;;;;;;52.60;27.33;;;;;;;;;;5025352;28;20030;-68
2022/12/13 00:57:43;;;;;;;53.10;28.23;;;;;;;;;;4963129;28;20130;-69
2022/12/13 01:00:09;;;;;;;56.80;27.20;;;;;;;;;;4961715;28;20050;-68
2022/12/13 01:02:34;;;;;;;53.63;26.57;;;;;;;;;;4962524;28;20072;-67
2022/12/13 01:04:59;;;;;;;54.60;28.30;;;;;;;;;;4962284;28;20050;-67
2022/12/13 01:07:27;;;;;;;55.17;26.07;;;;;;;;;;4960357;28;20687;-68
2022/12/13 01:09:56;;;;;;;54.37;24.93;;;;;;;;;;5011267;28;20043;-68
2022/12/13 01:12:21;;;;;;;51.17;26.80;;;;;;;;;;4961145;28;20147;-68
2022/12/13 01:14:47;;;;;;;61.27;28.77;;;;;;;;;;4963035;28;20685;-68
2022/12/13 01:17:12;;;;;;;57.77;28.93;;;;;;;;;;4960837;28;20045;-68
2022/12/13 01:19:38;;;;;;;58.77;28.83;;;;;;;;;;4960805;28;20034;-68
2022/12/13 01:22:04;;;;;;;59.13;28.57;;;;;;;;;;4998674;28;20116;-68
2022/12/13 01:24:30;;;;;;;57.37;29.57;;;;;;;;;;4962741;28;20042;-68
2022/12/13 01:26:56;;;;;;;62.93;30.90;;;;;;;;;;4944562;28;20035;-68
2022/12/13 01:29:23;;;;;;;60.77;31.90;;;;;;;;;;4960577;28;20034;-67
2022/12/13 01:31:49;;;;;;;60.93;30.87;;;;;;;;;;4963493;28;20063;-68
2022/12/13 01:34:15;;;;;;;55.67;30.57;;;;;;;;;;4959788;28;20042;-68
2022/12/13 01:36:41;;;;;;;70.53;33.43;;;;;;;;;;4983863;28;20116;-67
2022/12/13 01:39:08;;;;;;;70.67;33.90;;;;;;;;;;4966283;28;20851;-68
2022/12/13 01:41:33;;;;;;;58.80;29.30;;;;;;;;;;5028499;28;20056;-68
2022/12/13 01:44:01;;;;;;;59.27;29.43;;;;;;;;;;5045566;28;20035;-68
2022/12/13 01:46:27;;;;;;;57.53;29.13;;;;;;;;;;4942279;28;20568;-68
2022/12/13 01:48:56;;;;;;;57.57;31.33;;;;;;;;;;4950949;28;20053;-67
2022/12/13 01:51:25;;;;;;;58.33;28.83;;;;;;;;;;4958252;28;20038;-69
2022/12/13 01:53:53;;;;;;;60.77;30.10;;;;;;;;;;4950582;28;20687;-68
2022/12/13 01:56:23;;;;;;;60.40;29.87;;;;;;;;;;4958202;28;20567;-68
2022/12/13 01:58:51;;;;;;;54.43;26.20;;;;;;;;;;4959644;28;20058;-68
2022/12/13 02:01:16;;;;;;;62.97;27.83;;;;;;;;;;5029315;28;20135;-68
2022/12/13 02:03:42;;;;;;;50.00;25.70;;;;;;;;;;5029578;28;20030;-67
2022/12/13 02:06:16;;;;;;;55.53;26.47;;;;;;;;;;4948347;28;20062;-68
2022/12/13 02:08:43;;;;;;;51.70;25.63;;;;;;;;;;4956316;28;20074;-68
2022/12/13 02:11:10;;;;;;;53.90;25.40;;;;;;;;;;4960303;28;20041;-68
2022/12/13 02:13:36;;;;;;;46.27;24.23;;;;;;;;;;5054875;28;20036;-68
2022/12/13 02:16:07;;;;;;;47.60;23.13;;;;;;;;;;5039771;28;20143;-68
2022/12/13 02:18:44;;;;;;;52.17;23.27;;;;;;;;;;4982081;28;20076;-68
2022/12/13 02:21:29;;;;;;;48.47;23.20;;;;;;;;;;4943503;28;20726;-68
2022/12/13 02:24:18;;;;;;;51.57;22.90;;;;;;;;;;5027960;28;20055;-68
2022/12/13 02:26:46;;;;;;;43.87;21.27;;;;;;;;;;5004940;28;20034;-68
2022/12/13 02:29:34;;;;;;;49.40;22.80;;;;;;;;;;4997801;28;20035;-68
2022/12/13 02:32:08;;;;;;;52.47;22.33;;;;;;;;;;4961392;28;20110;-68
2022/12/13 02:34:36;;;;;;;48.97;23.03;;;;;;;;;;4997790;28;20882;-68
2022/12/13 02:37:14;;;;;;;49.60;21.43;;;;;;;;;;5062490;28;20123;-68
2022/12/13 02:40:09;;;;;;;47.73;21.80;;;;;;;;;;5061415;28;20542;-68
2022/12/13 02:42:38;;;;;;;53.10;23.30;;;;;;;;;;4933869;28;20043;-67
2022/12/13 02:45:10;;;;;;;45.87;21.70;;;;;;;;;;4984981;28;20055;-67
2022/12/13 02:47:36;;;;;;;52.28;23.08;;;;;;;;;;4943967;28;20034;-67
2022/12/13 02:50:04;;;;;;;48.67;23.10;;;;;;;;;;4961287;28;20046;-67
2022/12/13 02:52:33;;;;;;;48.80;22.77;;;;;;;;;;4958631;28;20107;-68
2022/12/13 02:54:58;;;;;;;47.63;22.33;;;;;;;;;;5040905;28;20025;-67
2022/12/13 02:57:28;;;;;;;49.60;23.23;;;;;;;;;;4973797;28;20046;-67
2022/12/13 02:59:55;;;;;;;54.63;23.13;;;;;;;;;;4959855;28;20035;-68
2022/12/13 03:02:25;;;;;;;55.90;25.30;;;;;;;;;;4958774;28;20068;-68
2022/12/13 03:07:51;;;;;;;54.67;23.53;;;;;;;;;;4960037;28;20042;-68
2022/12/13 03:10:22;;;;;;;46.92;22.20;;;;;;;;;;4960459;28;20046;-68
2022/12/13 03:15:43;;;;;;;50.70;22.33;;;;;;;;;;4961918;28;20038;-68
2022/12/13 03:18:14;;;;;;;48.72;22.88;;;;;;;;;;4960104;28;20156;-67
2022/12/13 03:20:44;;;;;;;46.83;21.23;;;;;;;;;;4942963;28;20041;-68
2022/12/13 03:23:10;;;;;;;45.60;22.47;;;;;;;;;;4973397;28;20039;-67
2022/12/13 03:25:35;;;;;;;44.90;20.97;;;;;;;;;;4958951;28;20057;-68
2022/12/13 03:28:00;;;;;;;46.23;20.03;;;;;;;;;;4956514;28;20034;-67
2022/12/13 03:30:26;;;;;;;41.93;20.03;;;;;;;;;;4948738;28;20800;-68
2022/12/13 03:32:51;;;;;;;42.90;20.37;;;;;;;;;;4959093;28;20139;-68
2022/12/13 03:35:17;;;;;;;47.53;19.47;;;;;;;;;;4984266;28;20816;-68
2022/12/13 03:37:42;;;;;;;43.43;19.40;;;;;;;;;;5023933;28;20196;-67
2022/12/13 03:40:08;;;;;;;40.83;18.40;;;;;;;;;;4941482;28;20047;-67
2022/12/13 03:42:34;;;;;;;43.33;19.67;;;;;;;;;;4942689;28;20135;-69
2022/12/13 03:45:00;;;;;;;44.07;19.23;;;;;;;;;;4957801;28;20084;-69
2022/12/13 03:47:25;;;;;;;43.57;19.80;;;;;;;;;;4959481;28;20035;-68
2022/12/13 03:49:50;;;;;;;38.97;19.50;;;;;;;;;;4942009;28;20038;-68
2022/12/13 03:52:16;;;;;;;37.93;18.03;;;;;;;;;;4942634;28;20061;-68
2022/12/13 03:54:44;;;;;;;45.47;19.40;;;;;;;;;;4940751;28;20045;-69
2022/12/13 03:57:10;;;;;;;42.00;18.30;;;;;;;;;;4958620;28;20100;-68
2022/12/13 03:59:35;;;;;;;41.73;18.77;;;;;;;;;;4943419;28;20572;-68
2022/12/13 04:02:03;;;;;;;38.33;18.30;;;;;;;;;;4955465;28;20279;-68
2022/12/13 04:04:30;;;;;;;40.37;18.53;;;;;;;;;;4962111;28;20570;-67
2022/12/13 04:06:55;;;;;;;48.73;21.03;;;;;;;;;;4957830;28;20038;-68
2022/12/13 04:09:25;;;;;;;49.03;20.70;;;;;;;;;;5017253;28;20042;-68
2022/12/13 04:14:36;;;;;;;44.97;20.87;;;;;;;;;;4980778;28;20130;-67
2022/12/13 04:17:07;;;;;;;43.43;20.53;;;;;;;;;;4958517;28;20504;-68
2022/12/13 04:19:35;;;;;;;56.30;21.37;;;;;;;;;;4939488;28;20877;-68
2022/12/13 04:22:02;;;;;;;56.93;22.93;;;;;;;;;;4929721;28;20043;-68
2022/12/13 04:24:30;;;;;;;46.63;21.33;;;;;;;;;;5020409;28;20575;-67
2022/12/13 04:26:55;;;;;;;44.97;20.97;;;;;;;;;;4988681;28;20046;-68
2022/12/13 04:29:23;;;;;;;41.90;20.30;;;;;;;;;;4940494;28;20058;-68
2022/12/13 04:31:52;;;;;;;41.67;20.47;;;;;;;;;;4965305;28;20038;-67
2022/12/13 04:34:17;;;;;;;36.17;19.70;;;;;;;;;;4956127;28;20104;-69
2022/12/13 04:36:42;;;;;;;42.83;19.53;;;;;;;;;;4940998;28;20027;-68
2022/12/13 04:39:09;;;;;;;43.03;19.27;;;;;;;;;;4959070;28;20882;-69
2022/12/13 04:41:36;;;;;;;40.00;19.23;;;;;;;;;;4957633;28;20065;-67
2022/12/13 04:44:05;;;;;;;41.57;19.40;;;;;;;;;;4960529;28;20856;-68
2022/12/13 04:46:31;;;;;;;36.60;18.37;;;;;;;;;;4962839;28;20042;-68
2022/12/13 04:49:01;;;;;;;44.87;20.30;;;;;;;;;;4962537;28;20813;-68
2022/12/13 04:51:28;;;;;;;48.87;19.17;;;;;;;;;;4978328;28;20045;-68
2022/12/13 04:53:56;;;;;;;45.07;19.87;;;;;;;;;;4979625;28;20131;-69
2022/12/13 04:56:21;;;;;;;52.53;22.80;;;;;;;;;;4944646;28;20034;-67
2022/12/13 04:58:47;;;;;;;46.40;21.80;;;;;;;;;;4947822;28;20849;-68
2022/12/13 05:01:12;;;;;;;55.50;23.33;;;;;;;;;;4960147;28;20034;-69
2022/12/13 05:03:38;;;;;;;47.13;21.80;;;;;;;;;;4965800;28;20034;-67
2022/12/13 05:06:04;;;;;;;44.70;22.53;;;;;;;;;;4969142;28;20805;-68
2022/12/13 05:08:29;;;;;;;49.83;21.90;;;;;;;;;;4961788;28;20035;-68
2022/12/13 05:10:55;;;;;;;46.47;22.20;;;;;;;;;;4962227;28;20045;-68
2022/12/13 05:13:20;;;;;;;52.47;22.07;;;;;;;;;;4961699;28;20034;-67
2022/12/13 05:15:48;;;;;;;50.23;22.43;;;;;;;;;;4961997;28;20039;-68
2022/12/13 05:18:13;;;;;;;47.03;21.97;;;;;;;;;;4957444;28;20128;-67
2022/12/13 05:20:39;;;;;;;46.07;21.60;;;;;;;;;;4966156;28;21819;-68
2022/12/13 05:23:04;;;;;;;50.23;22.17;;;;;;;;;;4959495;28;20073;-68
2022/12/13 05:25:31;;;;;;;42.87;22.17;;;;;;;;;;4954744;28;20146;-68
2022/12/13 05:27:59;;;;;;;53.60;23.53;;;;;;;;;;4962613;28;20042;-69
2022/12/13 05:30:24;;;;;;;55.10;22.73;;;;;;;;;;4960625;28;20088;-69
2022/12/13 05:32:52;;;;;;;45.80;23.10;;;;;;;;;;4955373;28;20744;-68
2022/12/13 05:35:18;;;;;;;43.90;21.47;;;;;;;;;;4945500;28;20841;-68
2022/12/13 05:37:43;;;;;;;55.27;25.80;;;;;;;;;;4951567;28;20043;-67
2022/12/13 05:40:09;;;;;;;53.37;24.07;;;;;;;;;;5027136;28;20120;-69
2022/12/13 05:42:35;;;;;;;58.50;24.83;;;;;;;;;;4974474;28;20035;-70
2022/12/13 05:45:03;;;;;;;63.03;26.20;;;;;;;;;;4961831;28;20180;-70
2022/12/13 05:47:31;;;;;;;57.73;26.83;;;;;;;;;;4960846;28;20038;-68
2022/12/13 05:49:57;;;;;;;58.67;25.97;;;;;;;;;;4957407;28;20046;-70
2022/12/13 05:52:23;;;;;;;62.37;26.93;;;;;;;;;;4960731;28;20030;-69
2022/12/13 05:54:53;;;;;;;58.47;26.50;;;;;;;;;;5046492;28;20029;-69
2022/12/13 05:57:18;;;;;;;62.73;27.00;;;;;;;;;;5001283;28;20621;-70
2022/12/13 05:59:43;;;;;;;62.97;26.87;;;;;;;;;;4966302;28;20038;-69
2022/12/13 06:02:09;;;;;;;69.90;30.20;;;;;;;;;;4957466;28;20429;-69
2022/12/13 06:04:34;;;;;;;69.83;30.67;;;;;;;;;;4973446;28;20069;-70
2022/12/13 06:07:00;;;;;;;56.50;25.87;;;;;;;;;;4997239;28;20038;-70
2022/12/13 06:09:28;;;;;;;56.13;26.33;;;;;;;;;;4959679;28;20038;-69
2022/12/13 06:11:53;;;;;;;54.53;26.03;;;;;;;;;;4957768;28;20039;-69
2022/12/13 06:14:21;;;;;;;54.97;24.73;;;;;;;;;;4975387;28;20666;-69
2022/12/13 06:16:48;;;;;;;55.97;26.23;;;;;;;;;;4971602;28;20042;-70
2022/12/13 06:19:14;;;;;;;50.30;24.97;;;;;;;;;;4962367;28;20393;-70
2022/12/13 06:21:39;;;;;;;56.30;25.00;;;;;;;;;;4963688;28;20041;-71
2022/12/13 06:24:07;;;;;;;49.43;24.67;;;;;;;;;;4994291;28;20483;-69
2022/12/13 06:26:33;;;;;;;55.87;25.23;;;;;;;;;;4967240;28;20059;-69
2022/12/13 06:28:58;;;;;;;50.17;23.57;;;;;;;;;;4940123;28;20740;-69
2022/12/13 06:31:25;;;;;;;58.63;26.30;;;;;;;;;;4954521;28;20838;-69
2022/12/13 06:33:51;;;;;;;54.63;26.17;;;;;;;;;;4960558;28;20476;-70
2022/12/13 06:36:16;;;;;;;56.13;26.27;;;;;;;;;;4943876;28;20034;-69
2022/12/13 06:38:41;;;;;;;57.47;26.97;;;;;;;;;;4959121;28;20038;-68
2022/12/13 06:41:08;;;;;;;61.60;27.67;;;;;;;;;;4957886;28;20042;-70
2022/12/13 06:43:40;;;;;;;56.23;26.93;;;;;;;;;;4955436;28;20090;-69
2022/12/13 06:46:05;;;;;;;52.60;25.47;;;;;;;;;;5010569;28;20040;-69
2022/12/13 06:48:31;;;;;;;62.70;27.90;;;;;;;;;;5040375;28;20048;-69
2022/12/13 06:51:03;;;;;;;54.27;26.40;;;;;;;;;;5041312;28;20845;-69
2022/12/13 06:53:29;;;;;;;;;;;;;;;;;;5041557;28;20166;-69
2022/12/13 06:55:56;;;;;;;59.63;26.80;;;;;;;;;;5030550;28;19920;-68
2022/12/13 06:58:22;;;;;;;63.63;29.20;;;;;;;;;;5037114;28;20040;-69
2022/12/13 07:00:47;;;;;;;59.50;28.40;;;;;;;;;;5019409;28;20047;-69
2022/12/13 07:03:13;;;;;;;65.73;30.50;;;;;;;;;;5021547;28;20032;-68
2022/12/13 07:05:38;;;;;;;63.27;31.33;;;;;;;;;;5039530;28;20114;-68
2022/12/13 07:08:03;;;;;;;72.70;32.43;;;;;;;;;;5040937;28;20028;-69
2022/12/13 07:10:31;;;;;;;65.10;31.63;;;;;;;;;;5023306;28;20040;-69
2022/12/13 07:12:59;;;;;;;79.97;32.60;;;;;;;;;;5049482;28;20024;-69
2022/12/13 07:15:25;;;;;;;67.07;31.23;;;;;;;;;;5053204;28;20485;-72
2022/12/13 07:17:52;;;;;;;65.87;31.37;;;;;;;;;;5044519;28;20044;-68
2022/12/13 07:20:19;;;;;;;58.90;29.93;;;;;;;;;;5029619;28;20047;-67
2022/12/13 07:22:45;;;;;;;60.67;28.50;;;;;;;;;;5034943;28;20032;-70
2022/12/13 07:25:11;;;;;;;61.33;28.90;;;;;;;;;;5045483;28;20611;-69
2022/12/13 07:27:36;;;;;;;56.50;28.53;;;;;;;;;;5051160;28;20032;-69
2022/12/13 07:30:02;;;;;;;68.33;30.80;;;;;;;;;;5035650;28;20032;-69
2022/12/13 07:32:27;;;;;;;66.03;29.30;;;;;;;;;;5035370;28;20039;-68
2022/12/13 07:34:53;;;;;;;65.53;30.17;;;;;;;;;;5026610;28;20033;-69
2022/12/13 07:37:18;;;;;;;64.97;30.90;;;;;;;;;;5021532;28;20688;-67
2022/12/13 07:39:44;;;;;;;65.17;30.67;;;;;;;;;;5040003;28;20270;-69
2022/12/13 07:42:14;;;;;;;64.53;32.97;;;;;;;;;;5022176;28;20088;-68
2022/12/13 07:44:39;;;;;;;65.10;28.93;;;;;;;;;;5040671;28;20044;-69
2022/12/13 07:47:05;;;;;;;67.03;28.63;;;;;;;;;;4969518;28;20038;-69
2022/12/13 07:49:30;;;;;;;56.10;26.33;;;;;;;;;;4941543;28;20141;-68
2022/12/13 07:51:58;;;;;;;56.30;25.33;;;;;;;;;;4957663;28;20203;-69
2022/12/13 07:54:23;;;;;;;56.90;26.67;;;;;;;;;;4957081;28;20038;-70
2022/12/13 07:56:51;;;;;;;57.93;25.63;;;;;;;;;;4938770;28;20041;-69
2022/12/13 07:59:16;;;;;;;55.93;24.90;;;;;;;;;;4940943;28;20062;-68
2022/12/13 08:01:44;;;;;;;58.63;25.53;;;;;;;;;;4958609;28;20061;-69
2022/12/13 08:04:09;;;;;;;60.23;26.13;;;;;;;;;;4958519;28;20428;-68
2022/12/13 08:06:35;;;;;;;63.07;28.27;;;;;;;;;;4959740;28;20037;-68
2022/12/13 08:09:04;;;;;;;56.80;25.70;;;;;;;;;;4957180;28;20022;-68
2022/12/13 08:11:30;;;;;;;53.27;26.37;;;;;;;;;;4959351;28;20042;-70
2022/12/13 08:13:56;;;;;;;62.20;27.33;;;;;;;;;;4958452;28;20035;-68
2022/12/13 08:16:24;;;;;;;67.20;27.00;;;;;;;;;;4960768;28;21028;-70
2022/12/13 08:18:49;;;;;;;65.80;26.90;;;;;;;;;;4962818;28;20035;-68
2022/12/13 08:21:15;;;;;;;66.20;28.30;;;;;;;;;;4928510;28;20030;-70
2022/12/13 08:23:40;;;;;;;63.60;26.63;;;;;;;;;;4962886;28;20034;-68
2022/12/13 08:26:07;;;;;;;61.47;28.60;;;;;;;;;;4928328;28;20704;-69
2022/12/13 08:28:33;;;;;;;65.37;28.73;;;;;;;;;;4962626;28;20068;-69
2022/12/13 08:31:05;;;;;;;76.50;30.23;;;;;;;;;;4943911;28;20045;-68
2022/12/13 08:33:31;;;;;;;75.10;29.70;;;;;;;;;;4962085;28;20545;-69
2022/12/13 08:36:05;;;;;;;68.20;29.60;;;;;;;;;;4961704;28;20027;-69
2022/12/13 08:38:31;;;;;;;70.53;28.47;;;;;;;;;;4960819;28;20042;-69
2022/12/13 08:41:01;;;;;;;78.27;29.00;;;;;;;;;;4961505;28;20064;-70
2022/12/13 08:43:26;;;;;;;63.70;27.60;;;;;;;;;;4962433;28;20038;-68
2022/12/13 08:45:52;;;;;;;63.17;28.03;;;;;;;;;;4958781;28;20591;-68
2022/12/13 08:48:17;;;;;;;66.10;27.77;;;;;;;;;;4925560;28;20066;-68
2022/12/13 08:50:42;;;;;;;67.67;28.83;;;;;;;;;;4924675;28;20035;-70
2022/12/13 08:53:08;;;;;;;65.20;29.30;;;;;;;;;;4942796;28;20507;-68
2022/12/13 08:55:33;;;;;;;65.23;28.43;;;;;;;;;;4958726;28;20035;-68
2022/12/13 08:58:07;;;;;;;61.70;28.13;;;;;;;;;;4928926;28;20167;-69
2022/12/13 09:00:35;;;;;;;56.33;27.77;;;;;;;;;;4944183;28;20050;-69
2022/12/13 09:03:03;;;;;;;56.63;27.10;;;;;;;;;;4943948;28;20788;-70
2022/12/13 09:05:29;;;;;;;52.73;25.33;;;;;;;;;;4960095;28;20559;-68
2022/12/13 09:07:55;;;;;;;50.73;25.80;;;;;;;;;;4961941;28;20315;-68
2022/12/13 09:10:20;;;;;;;57.33;25.87;;;;;;;;;;4961094;28;20163;-68
2022/12/13 09:12:45;;;;;;;51.83;25.80;;;;;;;;;;4961661;28;20853;-69
2022/12/13 09:15:13;;;;;;;60.70;31.70;;;;;;;;;;4959750;28;20041;-69
2022/12/13 09:17:40;;;;;;;58.77;30.13;;;;;;;;;;4961886;28;20752;-68
2022/12/13 09:20:08;;;;;;;67.23;31.40;;;;;;;;;;4944170;28;20038;-68
2022/12/13 09:22:33;;;;;;;72.43;33.70;;;;;;;;;;4961130;28;20127;-69
2022/12/13 09:24:59;;;;;;;71.10;34.37;;;;;;;;;;4961622;28;20043;-68
2022/12/13 09:27:24;;;;;;;78.87;37.00;;;;;;;;;;4960879;28;20495;-67
2022/12/13 09:29:51;;;;;;;74.13;36.87;;;;;;;;;;4961057;28;20256;-69
2022/12/13 09:32:22;;;;;;;88.60;41.67;;;;;;;;;;4945235;28;20058;-68
2022/12/13 09:34:50;;;;;;;81.87;38.63;;;;;;;;;;4943903;28;20443;-69
2022/12/13 09:37:16;;;;;;;89.03;41.20;;;;;;;;;;4961622;28;20030;-68
2022/12/13 09:39:42;;;;;;;75.77;35.77;;;;;;;;;;4961430;28;20039;-68
2022/12/13 09:42:27;;;;;;;79.17;38.03;;;;;;;;;;4960681;28;20499;-68
2022/12/13 09:44:58;;;;;;;68.50;33.17;;;;;;;;;;4959441;28;20099;-68
2022/12/13 09:47:32;;;;;;;67.63;34.13;;;;;;;;;;4946734;28;20131;-67
2022/12/13 09:49:59;;;;;;;64.47;32.97;;;;;;;;;;4942261;28;20061;-68
2022/12/13 09:52:24;;;;;;;64.30;34.10;;;;;;;;;;4943461;28;20069;-68
2022/12/13 09:54:54;;;;;;;63.87;34.60;;;;;;;;;;4927252;28;20126;-68
2022/12/13 09:57:22;;;;;;;;;;;;;;;;;;4959079;28;20045;-69
2022/12/13 09:59:47;;;;;;;71.90;35.53;;;;;;;;;;4959558;28;19911;-68
2022/12/13 10:02:12;;;;;;;66.10;34.67;;;;;;;;;;4926832;28;20134;-68
2022/12/13 10:04:38;;;;;;;59.67;31.70;;;;;;;;;;4961007;28;20046;-69
2022/12/13 10:07:10;;;;;;;54.90;28.73;;;;;;;;;;4960890;28;20479;-68
2022/12/13 10:09:38;;;;;;;49.17;27.58;;;;;;;;;;4960715;28;20115;-67
2022/12/13 10:12:04;;;;;;;57.33;29.30;;;;;;;;;;4942574;28;20040;-67
2022/12/13 10:14:35;;;;;;;53.67;30.13;;;;;;;;;;4943309;28;20030;-68
2022/12/13 10:17:06;;;;;;;58.23;33.03;;;;;;;;;;4960357;28;20171;-69
2022/12/13 10:19:34;;;;;;;62.17;33.03;;;;;;;;;;4960166;28;20038;-67
2022/12/13 10:21:59;;;;;;;64.90;33.77;;;;;;;;;;4960458;28;20031;-68
2022/12/13 10:24:30;;;;;;;58.43;32.03;;;;;;;;;;4960561;28;20026;-68
2022/12/13 10:27:00;;;;;;;57.73;30.70;;;;;;;;;;4942392;28;20023;-68
2022/12/13 10:29:25;;;;;;;51.20;28.23;;;;;;;;;;4960197;28;20133;-68
2022/12/13 10:31:51;;;;;;;49.47;27.83;;;;;;;;;;4942791;28;20794;-67
2022/12/13 10:34:21;;;;;;;53.50;28.63;;;;;;;;;;4960304;28;20027;-67
2022/12/13 10:36:47;;;;;;;49.13;28.10;;;;;;;;;;4959590;28;20026;-67
2022/12/13 10:39:17;;;;;;;51.87;30.50;;;;;;;;;;4959529;28;20031;-67
2022/12/13 10:41:45;;;;;;;52.60;27.13;;;;;;;;;;4959987;28;20453;-68
2022/12/13 10:44:10;;;;;;;48.37;25.83;;;;;;;;;;4926740;28;20575;-66
2022/12/13 10:46:36;;;;;;;37.00;21.00;;;;;;;;;;4952801;28;20057;-67
2022/12/13 10:49:01;;;;;;;38.47;20.63;;;;;;;;;;4960128;28;20034;-67
2022/12/13 10:51:36;;;;;;;35.77;19.93;;;;;;;;;;4960451;28;20033;-66
2022/12/13 10:54:03;;;;;;;37.37;19.80;;;;;;;;;;4959672;28;20022;-67
2022/12/13 10:56:35;;;;;;;39.90;19.57;;;;;;;;;;4941851;28;20038;-67
2022/12/13 10:59:10;;;;;;;27.40;16.13;;;;;;;;;;4942361;28;20065;-69
2022/12/13 11:01:35;;;;;;;33.17;17.57;;;;;;;;;;4959704;28;20423;-68
2022/12/13 11:04:04;;;;;;;32.33;15.77;;;;;;;;;;4960149;28;20068;-68
2022/12/13 11:06:42;;;;;;;35.33;18.37;;;;;;;;;;4926547;28;20304;-67
2022/12/13 11:09:24;;;;;;;37.77;18.23;;;;;;;;;;4959714;28;20384;-68
2022/12/13 11:11:55;;;;;;;38.95;19.50;;;;;;;;;;4960128;28;20031;-67
2022/12/13 11:14:22;;;;;;;37.23;19.53;;;;;;;;;;4959575;28;20041;-67
2022/12/13 11:16:51;;;;;;;40.63;20.80;;;;;;;;;;4959871;28;20542;-67
2022/12/13 11:19:22;;;;;;;36.43;18.67;;;;;;;;;;5026008;28;20583;-68
2022/12/13 11:21:48;;;;;;;30.27;17.10;;;;;;;;;;4941850;28;20039;-67
2022/12/13 11:24:19;;;;;;;29.17;15.87;;;;;;;;;;4959300;28;21030;-68
2022/12/13 11:26:46;;;;;;;28.60;15.98;;;;;;;;;;4942018;28;20042;-67
2022/12/13 11:29:18;;;;;;;34.57;18.87;;;;;;;;;;4959656;28;20068;-68
2022/12/13 11:32:02;;;;;;;38.15;20.33;;;;;;;;;;4941542;28;20061;-67
2022/12/13 11:34:39;;;;;;;31.53;19.60;;;;;;;;;;4941689;28;20642;-68
2022/12/13 11:37:26;;;;;;;36.13;20.40;;;;;;;;;;4959207;28;20372;-68
2022/12/13 11:40:00;;;;;;;35.90;19.67;;;;;;;;;;4959207;28;20035;-69
2022/12/13 11:42:28;;;;;;;37.87;21.07;;;;;;;;;;4959147;28;20022;-67
2022/12/13 11:45:10;;;;;;;37.57;22.03;;;;;;;;;;4958938;28;20430;-68
2022/12/13 11:47:50;;;;;;;37.60;21.67;;;;;;;;;;4938356;28;20734;-68
2022/12/13 11:50:19;;;;;;;39.90;21.87;;;;;;;;;;4947196;28;20315;-67
2022/12/13 11:52:52;;;;;;;36.33;20.17;;;;;;;;;;4958923;28;20060;-67
2022/12/13 11:55:27;;;;;;;35.73;21.10;;;;;;;;;;4959467;28;20385;-69
2022/12/13 11:57:52;;;;;;;39.07;22.53;;;;;;;;;;4959225;28;20046;-68
2022/12/13 12:00:32;;;;;;;36.27;22.20;;;;;;;;;;4959559;28;20618;-68
2022/12/13 12:03:18;;;;;;;42.03;25.93;;;;;;;;;;4941526;28;20026;-68
2022/12/13 12:05:52;;;;;;;50.70;32.30;;;;;;;;;;4959159;28;20863;-68
2022/12/13 12:08:44;;;;;;;53.73;32.80;;;;;;;;;;4958775;28;20062;-68
2022/12/13 12:11:18;;;;;;;51.20;33.83;;;;;;;;;;4959984;28;20045;-67
2022/12/13 12:13:50;;;;;;;57.57;34.27;;;;;;;;;;4959125;28;20664;-68
2022/12/13 12:16:16;;;;;;;56.22;32.70;;;;;;;;;;4959227;28;20096;-68
2022/12/13 12:18:44;;;;;;;56.40;35.53;;;;;;;;;;4958483;28;20171;-67
2022/12/13 12:21:18;;;;;;;59.70;38.13;;;;;;;;;;4926470;28;20489;-67
2022/12/13 12:23:46;;;;;;;59.13;39.13;;;;;;;;;;4958398;28;20053;-67
2022/12/13 12:26:15;;;;;;;59.60;37.63;;;;;;;;;;4958663;28;20030;-67
2022/12/13 12:29:07;;;;;;;64.57;40.93;;;;;;;;;;4958929;28;23879;-67
2022/12/13 12:31:43;;;;;;;65.50;43.53;;;;;;;;;;4966142;28;20120;-69
2022/12/13 12:34:33;;;;;;;65.40;42.67;;;;;;;;;;4959042;28;20211;-68
2022/12/13 12:37:17;;;;;;;54.20;37.83;;;;;;;;;;4958928;28;20026;-69
2022/12/13 12:39:47;;;;;;;52.92;34.22;;;;;;;;;;4958407;28;20026;-67
2022/12/13 12:42:28;;;;;;;49.20;31.70;;;;;;;;;;5025338;28;20031;-67
2022/12/13 12:45:17;;;;;;;45.57;29.67;;;;;;;;;;4958772;28;20122;-69
2022/12/13 12:48:02;;;;;;;58.63;35.63;;;;;;;;;;4930021;28;20053;-67
2022/12/13 12:50:28;;;;;;;54.80;36.00;;;;;;;;;;4937868;28;20061;-68
2022/12/13 12:52:53;;;;;;;64.60;41.00;;;;;;;;;;4939577;28;20308;-68
2022/12/13 12:55:25;;;;;;;54.90;35.53;;;;;;;;;;4938715;28;20057;-67
2022/12/13 12:57:51;;;;;;;;;;;;;;;;;;4939272;28;20087;-67
2022/12/13 13:00:23;;;;;;;57.13;40.63;;;;;;;;;;4938667;28;20731;-68
2022/12/13 13:02:55;;;;;;;67.00;45.93;;;;;;;;;;4942023;28;20046;-67
2022/12/13 13:05:29;;;;;;;58.03;41.17;;;;;;;;;;4942028;28;20121;-68
2022/12/13 13:07:58;;;;;;;56.85;37.30;;;;;;;;;;4942709;28;20575;-67
2022/12/13 13:10:24;;;;;;;48.03;30.37;;;;;;;;;;4924464;28;20104;-69
2022/12/13 13:12:50;;;;;;;41.37;22.73;;;;;;;;;;4942790;28;20031;-69
2022/12/13 13:15:30;;;;;;;38.17;22.93;;;;;;;;;;4940425;28;20030;-68
2022/12/13 13:17:56;;;;;;;41.93;23.77;;;;;;;;;;4942057;28;20403;-68
2022/12/13 13:20:22;;;;;;;38.03;22.50;;;;;;;;;;4924474;28;20072;-68
2022/12/13 13:22:51;;;;;;;41.88;22.88;;;;;;;;;;4940484;28;20043;-67
2022/12/13 13:25:16;;;;;;;40.77;23.67;;;;;;;;;;4941598;28;20070;-68
2022/12/13 13:27:43;;;;;;;39.40;22.33;;;;;;;;;;4942577;28;20512;-69
2022/12/13 13:30:14;;;;;;;36.17;22.23;;;;;;;;;;4942216;28;20133;-69
2022/12/13 13:32:40;;;;;;;39.33;22.07;;;;;;;;;;4908521;28;20038;-69
2022/12/13 13:35:24;;;;;;;34.60;21.53;;;;;;;;;;4941822;28;20035;-68
2022/12/13 13:37:51;;;;;;;37.33;21.17;;;;;;;;;;4941922;28;20303;-68
2022/12/13 13:40:37;;;;;;;42.47;22.70;;;;;;;;;;4924756;28;20266;-68
2022/12/13 13:43:05;;;;;;;37.43;22.17;;;;;;;;;;4940658;28;20961;-70
2022/12/13 13:45:48;;;;;;;36.70;22.43;;;;;;;;;;4951467;28;20694;-68
2022/12/13 13:48:34;;;;;;;41.60;22.17;;;;;;;;;;4957328;28;20533;-68
2022/12/13 13:50:59;;;;;;;40.67;23.97;;;;;;;;;;4941327;28;20027;-69
2022/12/13 13:53:24;;;;;;;40.87;23.37;;;;;;;;;;4930299;28;20574;-70
2022/12/13 13:56:22;;;;;;;40.33;23.80;;;;;;;;;;4942660;28;20438;-68
2022/12/13 13:58:50;;;;;;;40.10;23.30;;;;;;;;;;4927367;28;20492;-70
2022/12/13 14:01:34;;;;;;;40.00;23.33;;;;;;;;;;4961168;28;20023;-68
2022/12/13 14:04:37;;;;;;;38.20;24.17;;;;;;;;;;4960529;28;20559;-68
2022/12/13 14:07:11;;;;;;;39.17;23.63;;;;;;;;;;4899853;28;20035;-68
2022/12/13 14:09:42;;;;;;;38.57;22.50;;;;;;;;;;4950988;28;20422;-69
2022/12/13 14:12:23;;;;;;;42.58;23.83;;;;;;;;;;4960371;28;20437;-69
2022/12/13 14:15:12;;;;;;;39.87;22.93;;;;;;;;;;4958542;28;20034;-69
2022/12/13 14:17:56;;;;;;;43.33;23.70;;;;;;;;;;4960902;28;20030;-67
2022/12/13 14:20:41;;;;;;;41.17;23.67;;;;;;;;;;4960692;28;20026;-67
2022/12/13 14:23:27;;;;;;;40.77;23.23;;;;;;;;;;4960766;28;20570;-68
2022/12/13 14:25:53;;;;;;;43.50;24.70;;;;;;;;;;4960767;28;20626;-68
2022/12/13 14:28:32;;;;;;;42.80;23.60;;;;;;;;;;4960570;28;20027;-67
2022/12/13 14:31:01;;;;;;;37.17;22.43;;;;;;;;;;4960042;28;20049;-68
2022/12/13 14:33:27;;;;;;;39.90;24.43;;;;;;;;;;4960096;28;20293;-67
2022/12/13 14:35:57;;;;;;;39.00;23.73;;;;;;;;;;4959003;28;20117;-69
2022/12/13 14:38:28;;;;;;;45.07;24.20;;;;;;;;;;4960357;28;20190;-67